sensor_id;sensor_type;location;lat;lon;timestamp;pressure;altitude;pressure_sealevel;temperature;humidity
12178;BME280;6152;48.728;9.256;2022-07-24T00:00:59;97405.22;;;20.96;100.00
12178;BME280;6152;48.728;9.256;2022-07-24T00:03:25;97409.16;;;20.92;100.00
12178;BME280;6152;48.728;9.256;2022-07-24T00:05:52;97407.88;;;20.96;100.00
12178;BME280;6152;48.728;9.256;2022-07-24T00:08:19;97409.81;;;20.94;100.00
12178;BME280;6152;48.728;9.256;2022-07-24T00:10:45;97418.34;;;20.88;100.00
12178;BME280;6152;48.728;9.256;2022-07-24T00:13:11;97414.22;;;20.85;100.00
12178;BME280;6152;48.728;9.256;2022-07-24T00:15:37;97411.69;;;20.84;100.00
12178;BME280;6152;48.728;9.256;2022-07-24T00:18:03;97419.31;;;20.87;100.00
12178;BME280;6152;48.728;9.256;2022-07-24T00:20:30;97417.81;;;20.84;100.00
12178;BME280;6152;48.728;9.256;2022-07-24T00:22:56;97416.16;;;20.83;100.00
12178;BME280;6152;48.728;9.256;2022-07-24T00:25:22;97413.66;;;20.82;100.00
12178;BME280;6152;48.728;9.256;2022-07-24T00:27:48;97411.03;;;20.82;100.00
12178;BME280;6152;48.728;9.256;2022-07-24T00:30:14;97410.63;;;20.77;100.00
12178;BME280;6152;48.728;9.256;2022-07-24T00:32:40;97402.31;;;20.72;100.00
12178;BME280;6152;48.728;9.256;2022-07-24T00:35:06;97403.72;;;20.66;100.00
12178;BME280;6152;48.728;9.256;2022-07-24T00:37:33;97397.91;;;20.62;100.00
12178;BME280;6152;48.728;9.256;2022-07-24T00:39:59;97396.53;;;20.58;100.00
12178;BME280;6152;48.728;9.256;2022-07-24T00:42:25;97394.19;;;20.55;100.00
12178;BME280;6152;48.728;9.256;2022-07-24T00:44:51;97398.09;;;20.51;100.00
12178;BME280;6152;48.728;9.256;2022-07-24T00:47:17;97402.72;;;20.49;100.00
12178;BME280;6152;48.728;9.256;2022-07-24T00:49:43;97403.00;;;20.46;100.00
12178;BME280;6152;48.728;9.256;2022-07-24T00:52:10;97406.09;;;20.42;100.00
12178;BME280;6152;48.728;9.256;2022-07-24T00:54:36;97395.13;;;20.37;100.00
12178;BME280;6152;48.728;9.256;2022-07-24T00:57:02;97403.50;;;20.32;100.00
12178;BME280;6152;48.728;9.256;2022-07-24T00:59:28;97400.31;;;20.29;100.00
12178;BME280;6152;48.728;9.256;2022-07-24T01:01:54;97406.44;;;20.29;100.00
12178;BME280;6152;48.728;9.256;2022-07-24T01:04:21;97410.31;;;20.25;100.00
12178;BME280;6152;48.728;9.256;2022-07-24T01:06:47;97408.25;;;20.19;100.00
12178;BME280;6152;48.728;9.256;2022-07-24T01:09:14;97408.25;;;20.19;100.00
12178;BME280;6152;48.728;9.256;2022-07-24T01:11:42;97407.53;;;20.17;100.00
12178;BME280;6152;48.728;9.256;2022-07-24T01:14:09;97407.84;;;20.14;100.00
12178;BME280;6152;48.728;9.256;2022-07-24T01:16:37;97406.63;;;20.08;100.00
12178;BME280;6152;48.728;9.256;2022-07-24T01:19:03;97400.78;;;20.05;100.00
12178;BME280;6152;48.728;9.256;2022-07-24T01:21:30;97396.75;;;20.01;100.00
12178;BME280;6152;48.728;9.256;2022-07-24T01:23:56;97397.06;;;19.98;100.00
12178;BME280;6152;48.728;9.256;2022-07-24T01:26:22;97399.03;;;19.96;100.00
12178;BME280;6152;48.728;9.256;2022-07-24T01:28:48;97397.34;;;19.95;100.00
12178;BME280;6152;48.728;9.256;2022-07-24T01:31:14;97399.16;;;19.94;100.00
12178;BME280;6152;48.728;9.256;2022-07-24T01:33:40;97395.13;;;19.90;100.00
12178;BME280;6152;48.728;9.256;2022-07-24T01:36:06;97396.25;;;19.88;100.00
12178;BME280;6152;48.728;9.256;2022-07-24T01:38:33;97393.91;;;19.85;100.00
12178;BME280;6152;48.728;9.256;2022-07-24T01:40:59;97396.66;;;19.83;100.00
12178;BME280;6152;48.728;9.256;2022-07-24T01:43:25;97399.47;;;19.82;100.00
12178;BME280;6152;48.728;9.256;2022-07-24T01:45:51;97401.56;;;19.78;100.00
12178;BME280;6152;48.728;9.256;2022-07-24T01:48:17;97409.91;;;19.74;100.00
12178;BME280;6152;48.728;9.256;2022-07-24T01:50:43;97402.94;;;19.73;100.00
12178;BME280;6152;48.728;9.256;2022-07-24T01:53:09;97403.25;;;19.70;100.00
12178;BME280;6152;48.728;9.256;2022-07-24T01:55:36;97405.50;;;19.64;100.00
12178;BME280;6152;48.728;9.256;2022-07-24T01:58:02;97405.50;;;19.64;100.00
12178;BME280;6152;48.728;9.256;2022-07-24T02:00:28;97401.31;;;19.62;100.00
12178;BME280;6152;48.728;9.256;2022-07-24T02:02:54;97401.47;;;19.60;100.00
12178;BME280;6152;48.728;9.256;2022-07-24T02:05:20;97399.78;;;19.59;100.00
12178;BME280;6152;48.728;9.256;2022-07-24T02:07:55;97404.38;;;19.57;100.00
12178;BME280;6152;48.728;9.256;2022-07-24T02:10:22;97402.44;;;19.59;100.00
12178;BME280;6152;48.728;9.256;2022-07-24T02:12:49;97406.88;;;19.59;100.00
12178;BME280;6152;48.728;9.256;2022-07-24T02:15:15;97406.31;;;19.55;100.00
12178;BME280;6152;48.728;9.256;2022-07-24T02:17:46;97404.94;;;19.51;100.00
12178;BME280;6152;48.728;9.256;2022-07-24T02:20:12;97402.56;;;19.48;100.00
12178;BME280;6152;48.728;9.256;2022-07-24T02:22:39;97398.56;;;19.44;100.00
12178;BME280;6152;48.728;9.256;2022-07-24T02:25:06;97399.53;;;19.43;100.00
12178;BME280;6152;48.728;9.256;2022-07-24T02:27:32;97392.84;;;19.39;100.00
12178;BME280;6152;48.728;9.256;2022-07-24T02:29:58;97395.59;;;19.38;100.00
12178;BME280;6152;48.728;9.256;2022-07-24T02:32:24;97394.91;;;19.36;100.00
12178;BME280;6152;48.728;9.256;2022-07-24T02:34:50;97398.41;;;19.27;100.00
12178;BME280;6152;48.728;9.256;2022-07-24T02:37:17;97395.22;;;19.23;100.00
12178;BME280;6152;48.728;9.256;2022-07-24T02:39:43;97393.00;;;19.18;100.00
12178;BME280;6152;48.728;9.256;2022-07-24T02:42:09;97402.97;;;19.15;100.00
12178;BME280;6152;48.728;9.256;2022-07-24T02:44:35;97397.16;;;19.11;100.00
12178;BME280;6152;48.728;9.256;2022-07-24T02:47:01;97400.63;;;19.12;100.00
12178;BME280;6152;48.728;9.256;2022-07-24T02:49:27;97397.56;;;19.07;100.00
12178;BME280;6152;48.728;9.256;2022-07-24T02:51:53;97394.63;;;19.00;100.00
12178;BME280;6152;48.728;9.256;2022-07-24T02:54:20;97398.41;;;18.98;100.00
12178;BME280;6152;48.728;9.256;2022-07-24T02:56:46;97394.09;;;18.97;100.00
12178;BME280;6152;48.728;9.256;2022-07-24T02:59:12;97403.50;;;18.90;100.00
12178;BME280;6152;48.728;9.256;2022-07-24T03:01:38;97398.78;;;18.84;100.00
12178;BME280;6152;48.728;9.256;2022-07-24T03:04:04;97409.34;;;18.84;100.00
12178;BME280;6152;48.728;9.256;2022-07-24T03:06:30;97402.94;;;18.77;100.00
12178;BME280;6152;48.728;9.256;2022-07-24T03:08:57;97404.91;;;18.75;100.00
12178;BME280;6152;48.728;9.256;2022-07-24T03:11:23;97397.53;;;18.69;100.00
12178;BME280;6152;48.728;9.256;2022-07-24T03:13:49;97399.84;;;18.62;100.00
12178;BME280;6152;48.728;9.256;2022-07-24T03:16:15;97401.13;;;18.58;100.00
12178;BME280;6152;48.728;9.256;2022-07-24T03:18:42;97402.91;;;18.57;100.00
12178;BME280;6152;48.728;9.256;2022-07-24T03:21:13;97398.88;;;18.53;100.00
12178;BME280;6152;48.728;9.256;2022-07-24T03:23:40;97393.88;;;18.50;100.00
12178;BME280;6152;48.728;9.256;2022-07-24T03:26:06;97399.41;;;18.47;100.00
12178;BME280;6152;48.728;9.256;2022-07-24T03:28:32;97397.03;;;18.44;100.00
12178;BME280;6152;48.728;9.256;2022-07-24T03:30:58;97400.63;;;18.43;100.00
12178;BME280;6152;48.728;9.256;2022-07-24T03:33:26;97402.53;;;18.41;100.00
12178;BME280;6152;48.728;9.256;2022-07-24T03:35:52;97411.84;;;18.45;100.00
12178;BME280;6152;48.728;9.256;2022-07-24T03:38:19;97407.31;;;18.47;100.00
12178;BME280;6152;48.728;9.256;2022-07-24T03:40:45;97409.22;;;18.45;100.00
12178;BME280;6152;48.728;9.256;2022-07-24T03:43:11;97407.56;;;18.44;100.00
12178;BME280;6152;48.728;9.256;2022-07-24T03:45:38;97413.09;;;18.41;100.00
12178;BME280;6152;48.728;9.256;2022-07-24T03:48:05;97404.50;;;18.39;100.00
12178;BME280;6152;48.728;9.256;2022-07-24T03:50:31;97406.44;;;18.37;100.00
12178;BME280;6152;48.728;9.256;2022-07-24T03:52:57;97408.34;;;18.35;100.00
12178;BME280;6152;48.728;9.256;2022-07-24T03:55:23;97409.59;;;18.31;100.00
12178;BME280;6152;48.728;9.256;2022-07-24T03:57:50;97419.16;;;18.32;100.00
12178;BME280;6152;48.728;9.256;2022-07-24T04:00:16;97407.94;;;18.30;100.00
12178;BME280;6152;48.728;9.256;2022-07-24T04:02:42;97407.94;;;18.30;100.00
12178;BME280;6152;48.728;9.256;2022-07-24T04:05:09;97409.28;;;18.25;100.00
12178;BME280;6152;48.728;9.256;2022-07-24T04:07:38;97414.72;;;18.23;100.00
12178;BME280;6152;48.728;9.256;2022-07-24T04:10:06;97413.03;;;18.22;100.00
12178;BME280;6152;48.728;9.256;2022-07-24T04:12:33;97415.66;;;18.22;100.00
12178;BME280;6152;48.728;9.256;2022-07-24T04:14:59;97419.56;;;18.28;100.00
12178;BME280;6152;48.728;9.256;2022-07-24T04:17:25;97427.19;;;18.31;100.00
12178;BME280;6152;48.728;9.256;2022-07-24T04:19:51;97425.56;;;18.30;100.00
12178;BME280;6152;48.728;9.256;2022-07-24T04:22:18;97422.06;;;18.29;100.00
12178;BME280;6152;48.728;9.256;2022-07-24T04:24:44;97434.97;;;18.32;100.00
12178;BME280;6152;48.728;9.256;2022-07-24T04:27:10;97431.38;;;18.33;100.00
12178;BME280;6152;48.728;9.256;2022-07-24T04:29:36;97438.19;;;18.36;100.00
12178;BME280;6152;48.728;9.256;2022-07-24T04:32:02;97426.53;;;18.38;100.00
12178;BME280;6152;48.728;9.256;2022-07-24T04:34:28;97435.72;;;18.44;100.00
12178;BME280;6152;48.728;9.256;2022-07-24T04:36:54;97435.31;;;18.48;100.00
12178;BME280;6152;48.728;9.256;2022-07-24T04:39:20;97439.25;;;18.54;100.00
12178;BME280;6152;48.728;9.256;2022-07-24T04:41:46;97438.28;;;18.55;100.00
12178;BME280;6152;48.728;9.256;2022-07-24T04:44:12;97436.19;;;18.58;100.00
12178;BME280;6152;48.728;9.256;2022-07-24T04:46:38;97439.56;;;18.60;100.00
12178;BME280;6152;48.728;9.256;2022-07-24T04:49:05;97438.16;;;18.66;100.00
12178;BME280;6152;48.728;9.256;2022-07-24T04:51:31;97445.16;;;18.77;100.00
12178;BME280;6152;48.728;9.256;2022-07-24T04:53:57;97446.81;;;18.78;100.00
12178;BME280;6152;48.728;9.256;2022-07-24T04:56:23;97447.66;;;18.78;100.00
12178;BME280;6152;48.728;9.256;2022-07-24T04:58:49;97445.16;;;18.77;100.00
12178;BME280;6152;48.728;9.256;2022-07-24T05:01:16;97448.78;;;18.85;100.00
12178;BME280;6152;48.728;9.256;2022-07-24T05:03:42;97445.16;;;18.86;100.00
12178;BME280;6152;48.728;9.256;2022-07-24T05:06:09;97443.25;;;18.88;100.00
12178;BME280;6152;48.728;9.256;2022-07-24T05:08:35;97458.22;;;18.88;100.00
12178;BME280;6152;48.728;9.256;2022-07-24T05:11:01;97464.19;;;18.90;100.00
12178;BME280;6152;48.728;9.256;2022-07-24T05:13:27;97462.09;;;18.93;100.00
12178;BME280;6152;48.728;9.256;2022-07-24T05:15:53;97460.19;;;19.05;100.00
12178;BME280;6152;48.728;9.256;2022-07-24T05:18:21;97461.88;;;19.06;100.00
12178;BME280;6152;48.728;9.256;2022-07-24T05:20:47;97456.72;;;19.14;100.00
12178;BME280;6152;48.728;9.256;2022-07-24T05:23:13;97466.31;;;19.15;100.00
12178;BME280;6152;48.728;9.256;2022-07-24T05:25:39;97454.09;;;19.14;100.00
12178;BME280;6152;48.728;9.256;2022-07-24T05:28:05;97460.75;;;19.18;100.00
12178;BME280;6152;48.728;9.256;2022-07-24T05:30:31;97458.28;;;19.26;100.00
12178;BME280;6152;48.728;9.256;2022-07-24T05:32:57;97456.75;;;19.33;100.00
12178;BME280;6152;48.728;9.256;2022-07-24T05:35:23;97454.78;;;19.35;100.00
12178;BME280;6152;48.728;9.256;2022-07-24T05:37:49;97460.25;;;19.43;100.00
12178;BME280;6152;48.728;9.256;2022-07-24T05:40:15;97463.16;;;19.50;100.00
12178;BME280;6152;48.728;9.256;2022-07-24T05:42:42;97456.66;;;19.54;100.00
12178;BME280;6152;48.728;9.256;2022-07-24T05:45:08;97451.66;;;19.51;100.00
12178;BME280;6152;48.728;9.256;2022-07-24T05:47:41;97447.16;;;19.51;100.00
12178;BME280;6152;48.728;9.256;2022-07-24T05:50:10;97448.84;;;19.52;100.00
12178;BME280;6152;48.728;9.256;2022-07-24T05:52:36;97447.03;;;19.62;100.00
12178;BME280;6152;48.728;9.256;2022-07-24T05:55:04;97455.09;;;19.71;100.00
12178;BME280;6152;48.728;9.256;2022-07-24T05:57:30;97438.84;;;19.75;100.00
12178;BME280;6152;48.728;9.256;2022-07-24T05:59:57;97447.56;;;19.76;100.00
12178;BME280;6152;48.728;9.256;2022-07-24T06:02:23;97454.94;;;19.82;100.00
12178;BME280;6152;48.728;9.256;2022-07-24T06:04:49;97454.22;;;19.89;100.00
12178;BME280;6152;48.728;9.256;2022-07-24T06:07:15;97455.19;;;19.98;100.00
12178;BME280;6152;48.728;9.256;2022-07-24T06:09:41;97450.69;;;20.08;100.00
12178;BME280;6152;48.728;9.256;2022-07-24T06:12:08;97453.31;;;20.17;100.00
12178;BME280;6152;48.728;9.256;2022-07-24T06:14:34;97449.94;;;20.25;100.00
12178;BME280;6152;48.728;9.256;2022-07-24T06:17:00;97451.06;;;20.32;100.00
12178;BME280;6152;48.728;9.256;2022-07-24T06:19:27;97453.38;;;20.45;100.00
12178;BME280;6152;48.728;9.256;2022-07-24T06:21:53;97458.66;;;20.54;100.00
12178;BME280;6152;48.728;9.256;2022-07-24T06:24:19;97460.53;;;20.62;100.00
12178;BME280;6152;48.728;9.256;2022-07-24T06:26:45;97458.44;;;20.65;100.00
12178;BME280;6152;48.728;9.256;2022-07-24T06:29:11;97466.63;;;20.72;100.00
12178;BME280;6152;48.728;9.256;2022-07-24T06:31:38;97456.97;;;20.81;100.00
12178;BME280;6152;48.728;9.256;2022-07-24T06:34:04;97465.31;;;20.86;100.00
12178;BME280;6152;48.728;9.256;2022-07-24T06:36:30;97468.03;;;20.94;100.00
12178;BME280;6152;48.728;9.256;2022-07-24T06:38:56;97465.09;;;20.97;100.00
12178;BME280;6152;48.728;9.256;2022-07-24T06:41:22;97468.22;;;21.10;100.00
12178;BME280;6152;48.728;9.256;2022-07-24T06:43:48;97469.31;;;21.17;100.00
12178;BME280;6152;48.728;9.256;2022-07-24T06:46:14;97467.72;;;21.24;100.00
12178;BME280;6152;48.728;9.256;2022-07-24T06:48:41;97461.47;;;21.43;100.00
12178;BME280;6152;48.728;9.256;2022-07-24T06:51:07;97452.97;;;21.57;100.00
12178;BME280;6152;48.728;9.256;2022-07-24T06:53:33;97457.25;;;21.76;100.00
12178;BME280;6152;48.728;9.256;2022-07-24T06:56:00;97460.22;;;21.90;100.00
12178;BME280;6152;48.728;9.256;2022-07-24T06:58:26;97461.47;;;22.04;100.00
12178;BME280;6152;48.728;9.256;2022-07-24T07:00:53;97456.59;;;22.17;100.00
12178;BME280;6152;48.728;9.256;2022-07-24T07:03:20;97454.19;;;22.32;98.93
12178;BME280;6152;48.728;9.256;2022-07-24T07:05:46;97457.22;;;22.37;96.92
12178;BME280;6152;48.728;9.256;2022-07-24T07:08:12;97448.94;;;22.48;95.94
12178;BME280;6152;48.728;9.256;2022-07-24T07:10:38;97452.84;;;22.61;96.00
12178;BME280;6152;48.728;9.256;2022-07-24T07:13:04;97448.94;;;22.74;94.48
12178;BME280;6152;48.728;9.256;2022-07-24T07:15:30;97461.59;;;22.88;92.36
12178;BME280;6152;48.728;9.256;2022-07-24T07:17:56;97456.81;;;22.91;91.63
12178;BME280;6152;48.728;9.256;2022-07-24T07:20:23;97454.34;;;22.98;89.90
12178;BME280;6152;48.728;9.256;2022-07-24T07:22:49;97454.03;;;23.09;89.13
12178;BME280;6152;48.728;9.256;2022-07-24T07:25:15;97447.75;;;23.34;88.86
12178;BME280;6152;48.728;9.256;2022-07-24T07:27:41;97459.47;;;23.57;87.44
12178;BME280;6152;48.728;9.256;2022-07-24T07:30:07;97452.97;;;23.76;82.46
12178;BME280;6152;48.728;9.256;2022-07-24T07:32:34;97450.28;;;24.00;81.14
12178;BME280;6152;48.728;9.256;2022-07-24T07:35:00;97460.97;;;24.17;78.19
12178;BME280;6152;48.728;9.256;2022-07-24T07:37:26;97456.72;;;24.46;76.80
12178;BME280;6152;48.728;9.256;2022-07-24T07:39:52;97462.25;;;24.76;75.03
12178;BME280;6152;48.728;9.256;2022-07-24T07:42:18;97455.50;;;25.04;72.18
12178;BME280;6152;48.728;9.256;2022-07-24T07:44:44;97454.75;;;25.18;65.99
12178;BME280;6152;48.728;9.256;2022-07-24T07:47:10;97457.31;;;25.34;55.24
12178;BME280;6152;48.728;9.256;2022-07-24T07:49:37;97447.09;;;25.69;58.21
12178;BME280;6152;48.728;9.256;2022-07-24T07:52:03;97455.56;;;25.72;57.06
12178;BME280;6152;48.728;9.256;2022-07-24T07:54:29;97459.72;;;25.75;56.21
12178;BME280;6152;48.728;9.256;2022-07-24T07:56:55;97462.34;;;25.97;57.51
12178;BME280;6152;48.728;9.256;2022-07-24T07:59:21;97461.50;;;26.34;57.09
12178;BME280;6152;48.728;9.256;2022-07-24T08:01:47;97455.56;;;26.61;54.33
12178;BME280;6152;48.728;9.256;2022-07-24T08:04:13;97460.28;;;27.10;55.39
12178;BME280;6152;48.728;9.256;2022-07-24T08:06:40;97463.81;;;27.46;51.96
12178;BME280;6152;48.728;9.256;2022-07-24T08:09:06;97457.88;;;27.72;50.43
12178;BME280;6152;48.728;9.256;2022-07-24T08:11:33;97462.91;;;28.03;50.29
12178;BME280;6152;48.728;9.256;2022-07-24T08:13:59;97454.59;;;28.47;49.14
12178;BME280;6152;48.728;9.256;2022-07-24T08:16:25;97448.59;;;29.20;46.92
12178;BME280;6152;48.728;9.256;2022-07-24T08:18:52;97443.75;;;29.83;44.49
12178;BME280;6152;48.728;9.256;2022-07-24T08:21:18;97449.97;;;30.29;43.06
12178;BME280;6152;48.728;9.256;2022-07-24T08:23:45;97435.09;;;30.46;41.80
12178;BME280;6152;48.728;9.256;2022-07-24T08:26:11;97449.38;;;31.11;40.03
12178;BME280;6152;48.728;9.256;2022-07-24T08:28:39;97444.41;;;31.84;38.83
12178;BME280;6152;48.728;9.256;2022-07-24T08:31:05;97442.16;;;32.12;36.42
12178;BME280;6152;48.728;9.256;2022-07-24T08:33:31;97440.25;;;32.37;37.84
12178;BME280;6152;48.728;9.256;2022-07-24T08:35:57;97427.69;;;33.22;37.47
12178;BME280;6152;48.728;9.256;2022-07-24T08:38:23;97422.88;;;33.24;36.21
12178;BME280;6152;48.728;9.256;2022-07-24T08:40:50;97428.69;;;33.39;34.44
12178;BME280;6152;48.728;9.256;2022-07-24T08:43:16;97423.94;;;33.94;33.67
12178;BME280;6152;48.728;9.256;2022-07-24T08:45:43;97428.66;;;34.45;33.34
12178;BME280;6152;48.728;9.256;2022-07-24T08:48:12;97416.09;;;35.14;31.67
12178;BME280;6152;48.728;9.256;2022-07-24T08:50:42;97411.19;;;36.01;30.51
12178;BME280;6152;48.728;9.256;2022-07-24T08:53:09;97407.19;;;36.59;29.59
12178;BME280;6152;48.728;9.256;2022-07-24T08:55:35;97404.13;;;36.93;29.55
12178;BME280;6152;48.728;9.256;2022-07-24T08:58:02;97403.22;;;38.17;27.47
12178;BME280;6152;48.728;9.256;2022-07-24T09:00:31;97411.34;;;38.49;26.63
12178;BME280;6152;48.728;9.256;2022-07-24T09:02:57;97405.84;;;39.83;26.41
12178;BME280;6152;48.728;9.256;2022-07-24T09:05:23;97401.59;;;40.92;25.06
12178;BME280;6152;48.728;9.256;2022-07-24T09:07:49;97401.09;;;41.44;23.04
12178;BME280;6152;48.728;9.256;2022-07-24T09:10:17;97399.19;;;40.70;24.34
12178;BME280;6152;48.728;9.256;2022-07-24T09:12:46;97402.28;;;41.66;23.86
12178;BME280;6152;48.728;9.256;2022-07-24T09:15:16;97408.06;;;42.61;22.21
12178;BME280;6152;48.728;9.256;2022-07-24T09:18:08;97397.56;;;41.77;22.03
12178;BME280;6152;48.728;9.256;2022-07-24T09:20:50;97395.97;;;40.58;24.10
12178;BME280;6152;48.728;9.256;2022-07-24T09:23:19;97394.56;;;42.12;22.44
12178;BME280;6152;48.728;9.256;2022-07-24T09:25:53;97398.56;;;42.25;22.11
12178;BME280;6152;48.728;9.256;2022-07-24T09:28:20;97388.19;;;40.90;23.57
12178;BME280;6152;48.728;9.256;2022-07-24T09:30:47;97395.75;;;39.99;23.71
12178;BME280;6152;48.728;9.256;2022-07-24T09:33:15;97394.28;;;41.31;22.69
12178;BME280;6152;48.728;9.256;2022-07-24T09:35:43;97385.97;;;43.00;21.27
12178;BME280;6152;48.728;9.256;2022-07-24T09:38:13;97384.81;;;44.13;20.66
12178;BME280;6152;48.728;9.256;2022-07-24T09:40:42;97388.09;;;44.75;19.67
12178;BME280;6152;48.728;9.256;2022-07-24T09:45:53;97395.94;;;42.91;20.64
12178;BME280;6152;48.728;9.256;2022-07-24T09:48:22;97385.78;;;43.53;20.52
12178;BME280;6152;48.728;9.256;2022-07-24T09:50:54;97388.28;;;42.88;20.33
12178;BME280;6152;48.728;9.256;2022-07-24T09:53:22;97391.66;;;42.80;20.03
12178;BME280;6152;48.728;9.256;2022-07-24T09:56:09;97385.19;;;42.18;20.71
12178;BME280;6152;48.728;9.256;2022-07-24T09:58:38;97375.44;;;43.07;20.12
12178;BME280;6152;48.728;9.256;2022-07-24T10:01:06;97380.25;;;42.73;20.20
12178;BME280;6152;48.728;9.256;2022-07-24T10:03:34;97371.16;;;43.76;19.58
12178;BME280;6152;48.728;9.256;2022-07-24T10:06:03;97371.91;;;44.73;19.36
12178;BME280;6152;48.728;9.256;2022-07-24T10:08:31;97362.59;;;45.60;18.34
12178;BME280;6152;48.728;9.256;2022-07-24T10:10:58;97360.44;;;45.21;18.46
12178;BME280;6152;48.728;9.256;2022-07-24T10:13:25;97371.38;;;46.68;17.61
12178;BME280;6152;48.728;9.256;2022-07-24T10:21:21;97363.75;;;44.55;18.06
12178;BME280;6152;48.728;9.256;2022-07-24T10:26:37;97353.66;;;45.99;16.59
12178;BME280;6152;48.728;9.256;2022-07-24T10:29:16;97342.59;;;44.69;17.69
12178;BME280;6152;48.728;9.256;2022-07-24T10:31:48;97343.63;;;46.03;17.32
12178;BME280;6152;48.728;9.256;2022-07-24T10:42:45;97340.81;;;45.50;17.41
12178;BME280;6152;48.728;9.256;2022-07-24T10:45:20;97343.78;;;44.49;18.33
12178;BME280;6152;48.728;9.256;2022-07-24T10:47:46;97340.34;;;44.98;17.49
12178;BME280;6152;48.728;9.256;2022-07-24T10:50:13;97346.25;;;43.91;17.79
12178;BME280;6152;48.728;9.256;2022-07-24T10:52:42;97335.97;;;43.08;19.02
12178;BME280;6152;48.728;9.256;2022-07-24T10:55:32;97328.34;;;41.48;20.18
12178;BME280;6152;48.728;9.256;2022-07-24T10:58:00;97323.66;;;42.87;18.55
12178;BME280;6152;48.728;9.256;2022-07-24T11:00:35;97326.59;;;43.65;18.62
12178;BME280;6152;48.728;9.256;2022-07-24T11:05:44;97320.94;;;43.94;18.50
12178;BME280;6152;48.728;9.256;2022-07-24T11:08:32;97323.06;;;43.97;18.21
12178;BME280;6152;48.728;9.256;2022-07-24T11:11:09;97317.38;;;43.94;18.29
12178;BME280;6152;48.728;9.256;2022-07-24T11:13:39;97311.13;;;44.20;17.80
12178;BME280;6152;48.728;9.256;2022-07-24T11:16:17;97310.91;;;43.71;18.18
12178;BME280;6152;48.728;9.256;2022-07-24T11:21:39;97314.19;;;46.82;16.72
12178;BME280;6152;48.728;9.256;2022-07-24T11:24:17;97314.75;;;46.23;16.49
12178;BME280;6152;48.728;9.256;2022-07-24T11:29:30;97310.50;;;45.86;17.37
12178;BME280;6152;48.728;9.256;2022-07-24T11:32:00;97306.63;;;42.71;18.66
12178;BME280;6152;48.728;9.256;2022-07-24T11:34:28;97299.25;;;43.09;18.67
12178;BME280;6152;48.728;9.256;2022-07-24T11:36:56;97295.19;;;43.44;18.43
12178;BME280;6152;48.728;9.256;2022-07-24T11:39:34;97298.34;;;45.20;17.09
12178;BME280;6152;48.728;9.256;2022-07-24T11:42:06;97290.34;;;44.14;17.38
12178;BME280;6152;48.728;9.256;2022-07-24T11:44:39;97299.78;;;45.62;17.47
12178;BME280;6152;48.728;9.256;2022-07-24T11:47:32;97292.91;;;46.74;15.74
12178;BME280;6152;48.728;9.256;2022-07-24T11:50:00;97293.94;;;47.73;15.81
12178;BME280;6152;48.728;9.256;2022-07-24T11:52:29;97289.75;;;47.58;15.13
12178;BME280;6152;48.728;9.256;2022-07-24T11:55:11;97279.50;;;47.67;15.38
12178;BME280;6152;48.728;9.256;2022-07-24T11:57:40;97284.44;;;45.39;17.47
12178;BME280;6152;48.728;9.256;2022-07-24T12:00:16;97273.59;;;44.70;17.98
12178;BME280;6152;48.728;9.256;2022-07-24T12:02:51;97271.56;;;44.49;18.55
12178;BME280;6152;48.728;9.256;2022-07-24T12:05:36;97272.03;;;43.50;18.51
12178;BME280;6152;48.728;9.256;2022-07-24T12:08:19;97260.81;;;42.53;19.26
12178;BME280;6152;48.728;9.256;2022-07-24T12:10:47;97256.63;;;41.22;20.96
12178;BME280;6152;48.728;9.256;2022-07-24T12:13:16;97253.53;;;40.35;22.24
12178;BME280;6152;48.728;9.256;2022-07-24T12:15:42;97254.97;;;40.23;22.32
12178;BME280;6152;48.728;9.256;2022-07-24T12:18:09;97237.66;;;38.35;24.30
12178;BME280;6152;48.728;9.256;2022-07-24T12:20:42;97249.38;;;36.88;25.14
12178;BME280;6152;48.728;9.256;2022-07-24T12:23:11;97251.81;;;36.63;25.94
12178;BME280;6152;48.728;9.256;2022-07-24T12:25:38;97242.03;;;36.40;25.98
12178;BME280;6152;48.728;9.256;2022-07-24T12:28:08;97239.03;;;36.15;26.75
12178;BME280;6152;48.728;9.256;2022-07-24T12:30:40;97229.09;;;35.66;27.90
12178;BME280;6152;48.728;9.256;2022-07-24T12:33:22;97245.19;;;35.39;27.77
12178;BME280;6152;48.728;9.256;2022-07-24T12:36:06;97238.13;;;35.21;27.80
12178;BME280;6152;48.728;9.256;2022-07-24T12:38:41;97233.72;;;34.87;28.02
12178;BME280;6152;48.728;9.256;2022-07-24T12:41:13;97229.94;;;34.60;28.55
12178;BME280;6152;48.728;9.256;2022-07-24T12:43:51;97227.91;;;34.38;28.96
12178;BME280;6152;48.728;9.256;2022-07-24T12:46:19;97232.91;;;34.30;29.54
12178;BME280;6152;48.728;9.256;2022-07-24T12:49:01;97225.41;;;34.20;29.71
12178;BME280;6152;48.728;9.256;2022-07-24T12:51:53;97224.81;;;34.18;29.48
12178;BME280;6152;48.728;9.256;2022-07-24T12:54:25;97218.69;;;34.23;29.48
12178;BME280;6152;48.728;9.256;2022-07-24T12:56:55;97216.69;;;34.18;29.21
12178;BME280;6152;48.728;9.256;2022-07-24T13:01:53;97215.78;;;34.01;29.25
12178;BME280;6152;48.728;9.256;2022-07-24T13:04:21;97218.59;;;34.06;27.94
12178;BME280;6152;48.728;9.256;2022-07-24T13:06:51;97213.34;;;33.88;28.30
12178;BME280;6152;48.728;9.256;2022-07-24T13:09:18;97209.56;;;33.31;28.12
12178;BME280;6152;48.728;9.256;2022-07-24T13:11:46;97202.22;;;32.96;29.65
12178;BME280;6152;48.728;9.256;2022-07-24T13:14:13;97203.03;;;32.74;29.42
12178;BME280;6152;48.728;9.256;2022-07-24T13:16:41;97199.75;;;32.72;29.93
12178;BME280;6152;48.728;9.256;2022-07-24T13:19:09;97193.25;;;32.61;30.22
12178;BME280;6152;48.728;9.256;2022-07-24T13:21:37;97204.69;;;31.90;31.63
12178;BME280;6152;48.728;9.256;2022-07-24T13:24:07;97191.31;;;31.84;31.08
12178;BME280;6152;48.728;9.256;2022-07-24T13:26:33;97195.81;;;31.72;30.39
12178;BME280;6152;48.728;9.256;2022-07-24T13:29:01;97188.53;;;31.90;30.81
12178;BME280;6152;48.728;9.256;2022-07-24T13:31:27;97185.91;;;31.47;30.16
12178;BME280;6152;48.728;9.256;2022-07-24T13:33:53;97193.66;;;31.37;30.89
12178;BME280;6152;48.728;9.256;2022-07-24T13:36:19;97187.44;;;31.62;31.87
12178;BME280;6152;48.728;9.256;2022-07-24T13:38:46;97181.69;;;31.58;31.93